sensor_id;sensor_type;location;lat;lon;timestamp;pressure;altitude;pressure_sealevel;temperature;humidity
21821;BME280;11073;48.586;12.066;2023-03-19T00:02:40;96131.19;;;10.05;56.94
21821;BME280;11073;48.586;12.066;2023-03-19T00:05:37;96131.31;;;9.98;57.00
21821;BME280;11073;48.586;12.066;2023-03-19T00:08:26;96120.66;;;9.91;57.30
21821;BME280;11073;48.586;12.066;2023-03-19T00:11:17;96128.88;;;9.97;57.53
21821;BME280;11073;48.586;12.066;2023-03-19T00:14:06;96129.69;;;9.97;57.53
21821;BME280;11073;48.586;12.066;2023-03-19T00:16:55;96130.50;;;9.98;57.29
21821;BME280;11073;48.586;12.066;2023-03-19T00:19:44;96125.09;;;9.98;57.39
21821;BME280;11073;48.586;12.066;2023-03-19T00:22:33;96125.91;;;9.98;57.62
21821;BME280;11073;48.586;12.066;2023-03-19T00:25:23;96135.09;;;9.97;57.74
21821;BME280;11073;48.586;12.066;2023-03-19T00:28:14;96121.81;;;9.95;57.71
21821;BME280;11073;48.586;12.066;2023-03-19T00:31:08;96119.50;;;9.87;57.87
21821;BME280;11073;48.586;12.066;2023-03-19T00:33:58;96109.66;;;9.81;57.95
21821;BME280;11073;48.586;12.066;2023-03-19T00:36:48;96114.16;;;9.76;58.04
21821;BME280;11073;48.586;12.066;2023-03-19T00:39:37;96116.59;;;9.77;57.89
21821;BME280;11073;48.586;12.066;2023-03-19T00:42:27;96123.06;;;9.76;57.92
21821;BME280;11073;48.586;12.066;2023-03-19T00:45:18;96127.91;;;9.74;57.90
21821;BME280;11073;48.586;12.066;2023-03-19T00:48:07;96115.22;;;9.75;58.21
21821;BME280;11073;48.586;12.066;2023-03-19T00:51:01;96120.88;;;9.73;58.18
21821;BME280;11073;48.586;12.066;2023-03-19T00:53:51;96116.84;;;9.76;58.31
21821;BME280;11073;48.586;12.066;2023-03-19T00:56:41;96128.41;;;9.71;58.22
21821;BME280;11073;48.586;12.066;2023-03-19T00:59:30;96116.78;;;9.71;58.30
21821;BME280;11073;48.586;12.066;2023-03-19T01:02:20;96091.53;;;9.53;58.15
21821;BME280;11073;48.586;12.066;2023-03-19T01:05:10;96120.28;;;9.71;58.28
21821;BME280;11073;48.586;12.066;2023-03-19T01:07:59;96118.06;;;9.68;58.64
21821;BME280;11073;48.586;12.066;2023-03-19T01:10:49;96117.72;;;9.64;58.45
21821;BME280;11073;48.586;12.066;2023-03-19T01:13:39;96129.34;;;9.65;58.29
21821;BME280;11073;48.586;12.066;2023-03-19T01:16:29;96125.59;;;9.66;58.27
21821;BME280;11073;48.586;12.066;2023-03-19T01:19:19;96128.44;;;9.59;58.50
21821;BME280;11073;48.586;12.066;2023-03-19T01:22:09;96128.06;;;9.56;58.40
21821;BME280;11073;48.586;12.066;2023-03-19T01:25:01;96118.00;;;9.51;58.48
21821;BME280;11073;48.586;12.066;2023-03-19T01:27:51;96119.63;;;9.52;58.57
21821;BME280;11073;48.586;12.066;2023-03-19T01:30:40;96125.28;;;9.51;58.90
21821;BME280;11073;48.586;12.066;2023-03-19T01:33:50;96123.97;;;9.53;59.05
21821;BME280;11073;48.586;12.066;2023-03-19T01:37:02;96115.97;;;9.58;59.11
21821;BME280;11073;48.586;12.066;2023-03-19T01:39:53;96120.06;;;9.61;59.16
21821;BME280;11073;48.586;12.066;2023-03-19T01:42:55;96115.41;;;9.56;59.14
21821;BME280;11073;48.586;12.066;2023-03-19T01:46:05;96129.38;;;9.53;59.08
21821;BME280;11073;48.586;12.066;2023-03-19T01:49:17;96125.16;;;9.46;59.14
21821;BME280;11073;48.586;12.066;2023-03-19T01:52:14;96128.56;;;9.41;59.16
21821;BME280;11073;48.586;12.066;2023-03-19T01:55:30;96130.72;;;9.39;59.29
21821;BME280;11073;48.586;12.066;2023-03-19T01:58:28;96120.16;;;9.37;59.28
21821;BME280;11073;48.586;12.066;2023-03-19T02:01:34;96128.94;;;9.45;59.36
21821;BME280;11073;48.586;12.066;2023-03-19T02:04:27;96123.91;;;9.36;59.42
21821;BME280;11073;48.586;12.066;2023-03-19T02:07:19;96121.91;;;9.32;59.43
21821;BME280;11073;48.586;12.066;2023-03-19T02:10:13;96116.19;;;9.17;59.56
21821;BME280;11073;48.586;12.066;2023-03-19T02:13:02;96118.56;;;9.13;59.81
21821;BME280;11073;48.586;12.066;2023-03-19T02:15:51;96116.69;;;9.14;59.82
21821;BME280;11073;48.586;12.066;2023-03-19T02:18:41;96130.50;;;9.17;59.87
21821;BME280;11073;48.586;12.066;2023-03-19T02:21:30;96129.81;;;9.10;59.82
21821;BME280;11073;48.586;12.066;2023-03-19T02:24:25;96127.69;;;9.12;59.89
21821;BME280;11073;48.586;12.066;2023-03-19T02:27:23;96127.00;;;9.17;60.12
21821;BME280;11073;48.586;12.066;2023-03-19T02:30:19;96135.59;;;9.14;59.99
21821;BME280;11073;48.586;12.066;2023-03-19T02:33:10;96106.38;;;8.99;60.22
21821;BME280;11073;48.586;12.066;2023-03-19T02:36:01;96122.28;;;9.12;59.98
21821;BME280;11073;48.586;12.066;2023-03-19T02:38:51;96109.16;;;9.04;60.01
21821;BME280;11073;48.586;12.066;2023-03-19T02:41:41;96134.75;;;9.13;59.99
21821;BME280;11073;48.586;12.066;2023-03-19T02:44:32;96134.88;;;9.06;60.05
21821;BME280;11073;48.586;12.066;2023-03-19T02:47:22;96147.78;;;9.04;60.01
21821;BME280;11073;48.586;12.066;2023-03-19T02:50:11;96153.41;;;9.03;60.10
21821;BME280;11073;48.586;12.066;2023-03-19T02:53:02;96144.97;;;8.99;60.24
21821;BME280;11073;48.586;12.066;2023-03-19T02:55:51;96149.91;;;9.02;60.32
21821;BME280;11073;48.586;12.066;2023-03-19T02:58:40;96131.25;;;9.01;60.26
21821;BME280;11073;48.586;12.066;2023-03-19T03:01:30;96147.44;;;9.01;60.30
21821;BME280;11073;48.586;12.066;2023-03-19T03:04:20;96149.06;;;9.02;60.24
21821;BME280;11073;48.586;12.066;2023-03-19T03:07:09;96163.06;;;8.99;60.23
21821;BME280;11073;48.586;12.066;2023-03-19T03:09:59;96168.22;;;8.89;60.20
21821;BME280;11073;48.586;12.066;2023-03-19T03:12:48;96152.38;;;8.80;60.42
21821;BME280;11073;48.586;12.066;2023-03-19T03:15:38;96148.59;;;8.81;60.73
21821;BME280;11073;48.586;12.066;2023-03-19T03:18:29;96147.66;;;8.88;60.66
21821;BME280;11073;48.586;12.066;2023-03-19T03:21:19;96143.34;;;8.87;60.82
21821;BME280;11073;48.586;12.066;2023-03-19T03:24:09;96158.34;;;8.94;61.07
21821;BME280;11073;48.586;12.066;2023-03-19T03:26:59;96152.59;;;8.91;61.06
21821;BME280;11073;48.586;12.066;2023-03-19T03:29:49;96157.06;;;8.85;61.06
21821;BME280;11073;48.586;12.066;2023-03-19T03:32:38;96156.38;;;8.78;60.91
21821;BME280;11073;48.586;12.066;2023-03-19T03:35:29;96152.38;;;8.80;60.92
21821;BME280;11073;48.586;12.066;2023-03-19T03:38:20;96157.19;;;8.78;60.88
21821;BME280;11073;48.586;12.066;2023-03-19T03:41:10;96158.69;;;8.74;60.85
21821;BME280;11073;48.586;12.066;2023-03-19T03:43:59;96165.97;;;8.74;61.12
21821;BME280;11073;48.586;12.066;2023-03-19T03:46:51;96167.84;;;8.73;61.01
21821;BME280;11073;48.586;12.066;2023-03-19T03:49:41;96166.06;;;8.67;61.13
21821;BME280;11073;48.586;12.066;2023-03-19T03:52:33;96163.03;;;8.64;61.16
21821;BME280;11073;48.586;12.066;2023-03-19T03:55:22;96159.00;;;8.54;61.15
21821;BME280;11073;48.586;12.066;2023-03-19T03:58:12;96160.88;;;8.54;61.44
21821;BME280;11073;48.586;12.066;2023-03-19T04:01:01;96162.09;;;8.58;61.50
21821;BME280;11073;48.586;12.066;2023-03-19T04:03:51;96166.91;;;8.56;61.27
21821;BME280;11073;48.586;12.066;2023-03-19T04:06:41;96169.47;;;8.51;61.47
21821;BME280;11073;48.586;12.066;2023-03-19T04:09:52;96179.53;;;8.44;61.47
21821;BME280;11073;48.586;12.066;2023-03-19T04:12:42;96171.91;;;8.41;61.26
21821;BME280;11073;48.586;12.066;2023-03-19T04:15:32;96173.91;;;8.45;61.47
21821;BME280;11073;48.586;12.066;2023-03-19T04:18:23;96176.25;;;8.42;61.54
21821;BME280;11073;48.586;12.066;2023-03-19T04:21:12;96180.44;;;8.38;61.42
21821;BME280;11073;48.586;12.066;2023-03-19T04:24:04;96159.66;;;8.26;61.40
21821;BME280;11073;48.586;12.066;2023-03-19T04:26:54;96176.75;;;8.32;61.72
21821;BME280;11073;48.586;12.066;2023-03-19T04:29:45;96170.97;;;8.35;61.63
21821;BME280;11073;48.586;12.066;2023-03-19T04:32:36;96174.78;;;8.27;61.75
21821;BME280;11073;48.586;12.066;2023-03-19T04:35:26;96182.25;;;8.25;61.79
21821;BME280;11073;48.586;12.066;2023-03-19T04:38:15;96182.41;;;8.30;61.92
21821;BME280;11073;48.586;12.066;2023-03-19T04:41:05;96176.75;;;8.32;62.01
21821;BME280;11073;48.586;12.066;2023-03-19T04:43:58;96178.38;;;8.21;61.91
21821;BME280;11073;48.586;12.066;2023-03-19T04:46:48;96176.38;;;8.17;62.17
21821;BME280;11073;48.586;12.066;2023-03-19T04:49:39;96168.03;;;8.07;62.31
21821;BME280;11073;48.586;12.066;2023-03-19T04:52:29;96189.75;;;8.23;62.18
21821;BME280;11073;48.586;12.066;2023-03-19T04:55:20;96199.63;;;8.29;62.06
21821;BME280;11073;48.586;12.066;2023-03-19T04:58:24;96208.78;;;8.28;62.07
21821;BME280;11073;48.586;12.066;2023-03-19T05:01:20;96214.63;;;8.25;61.88
21821;BME280;11073;48.586;12.066;2023-03-19T05:04:27;96213.53;;;8.15;62.04
21821;BME280;11073;48.586;12.066;2023-03-19T05:07:20;96220.13;;;8.19;62.17
21821;BME280;11073;48.586;12.066;2023-03-19T05:10:11;96220.47;;;8.22;62.10
21821;BME280;11073;48.586;12.066;2023-03-19T05:13:00;96208.41;;;8.25;62.14
21821;BME280;11073;48.586;12.066;2023-03-19T05:15:52;96215.66;;;8.24;62.29
21821;BME280;11073;48.586;12.066;2023-03-19T05:18:42;96222.50;;;8.27;62.29
21821;BME280;11073;48.586;12.066;2023-03-19T05:21:32;96225.31;;;8.32;62.44
21821;BME280;11073;48.586;12.066;2023-03-19T05:24:21;96225.56;;;8.30;62.35
21821;BME280;11073;48.586;12.066;2023-03-19T05:27:12;96219.34;;;8.30;62.32
21821;BME280;11073;48.586;12.066;2023-03-19T05:30:07;96228.09;;;8.25;62.41
21821;BME280;11073;48.586;12.066;2023-03-19T05:32:57;96236.00;;;8.27;62.44
21821;BME280;11073;48.586;12.066;2023-03-19T05:35:55;96234.34;;;8.26;62.39
21821;BME280;11073;48.586;12.066;2023-03-19T05:38:53;96235.16;;;8.26;62.60
21821;BME280;11073;48.586;12.066;2023-03-19T05:41:51;96231.75;;;8.31;62.37
21821;BME280;11073;48.586;12.066;2023-03-19T05:44:46;96233.41;;;8.32;62.43
21821;BME280;11073;48.586;12.066;2023-03-19T05:47:39;96238.22;;;8.30;62.44
21821;BME280;11073;48.586;12.066;2023-03-19T05:50:29;96239.75;;;8.26;62.33
21821;BME280;11073;48.586;12.066;2023-03-19T05:53:38;96243.69;;;8.23;62.59
21821;BME280;11073;48.586;12.066;2023-03-19T05:56:46;96245.34;;;8.24;62.68
21821;BME280;11073;48.586;12.066;2023-03-19T06:00:02;96240.03;;;8.18;62.65
21821;BME280;11073;48.586;12.066;2023-03-19T06:02:53;96259.38;;;8.15;62.72
21821;BME280;11073;48.586;12.066;2023-03-19T06:06:15;96241.69;;;8.19;62.59
21821;BME280;11073;48.586;12.066;2023-03-19T06:09:06;96260.63;;;8.30;62.90
21821;BME280;11073;48.586;12.066;2023-03-19T06:11:59;96265.13;;;8.37;62.89
21821;BME280;11073;48.586;12.066;2023-03-19T06:15:20;96266.09;;;8.42;62.76
21821;BME280;11073;48.586;12.066;2023-03-19T06:18:09;96272.91;;;8.45;62.91
21821;BME280;11073;48.586;12.066;2023-03-19T06:20:58;96277.16;;;8.52;62.88
21821;BME280;11073;48.586;12.066;2023-03-19T06:23:47;96281.28;;;8.55;62.94
21821;BME280;11073;48.586;12.066;2023-03-19T06:26:42;96280.66;;;8.53;62.77
21821;BME280;11073;48.586;12.066;2023-03-19T06:29:34;96283.84;;;8.62;62.85
21821;BME280;11073;48.586;12.066;2023-03-19T06:32:35;96278.47;;;8.62;62.84
21821;BME280;11073;48.586;12.066;2023-03-19T06:35:29;96294.22;;;8.65;62.68
21821;BME280;11073;48.586;12.066;2023-03-19T06:38:19;96301.38;;;8.71;62.84
21821;BME280;11073;48.586;12.066;2023-03-19T06:41:07;96305.25;;;8.75;63.01
21821;BME280;11073;48.586;12.066;2023-03-19T06:43:57;96310.22;;;8.78;62.76
21821;BME280;11073;48.586;12.066;2023-03-19T06:46:46;96312.69;;;8.79;62.74
21821;BME280;11073;48.586;12.066;2023-03-19T06:49:36;96315.63;;;8.78;62.83
21821;BME280;11073;48.586;12.066;2023-03-19T06:52:26;96317.69;;;8.76;62.96
21821;BME280;11073;48.586;12.066;2023-03-19T06:55:15;96313.16;;;8.76;62.98
21821;BME280;11073;48.586;12.066;2023-03-19T06:58:05;96316.78;;;8.82;63.08
21821;BME280;11073;48.586;12.066;2023-03-19T07:00:55;96320.09;;;8.96;63.05
21821;BME280;11073;48.586;12.066;2023-03-19T07:03:44;96318.59;;;9.11;63.16
21821;BME280;11073;48.586;12.066;2023-03-19T07:06:34;96338.84;;;9.21;63.17
21821;BME280;11073;48.586;12.066;2023-03-19T07:09:23;96360.56;;;9.26;63.00
21821;BME280;11073;48.586;12.066;2023-03-19T07:12:13;96370.78;;;9.24;63.27
21821;BME280;11073;48.586;12.066;2023-03-19T07:15:03;96371.16;;;9.27;63.12
21821;BME280;11073;48.586;12.066;2023-03-19T07:17:54;96366.47;;;9.34;63.22
21821;BME280;11073;48.586;12.066;2023-03-19T07:20:43;96355.31;;;9.43;63.09
21821;BME280;11073;48.586;12.066;2023-03-19T07:23:33;96367.28;;;9.47;63.04
21821;BME280;11073;48.586;12.066;2023-03-19T07:26:23;96368.84;;;9.54;62.75
21821;BME280;11073;48.586;12.066;2023-03-19T07:29:13;96360.63;;;9.61;62.75
21821;BME280;11073;48.586;12.066;2023-03-19T07:32:02;96353.69;;;9.65;62.90
21821;BME280;11073;48.586;12.066;2023-03-19T07:34:53;96364.28;;;9.78;62.66
21821;BME280;11073;48.586;12.066;2023-03-19T07:37:41;96362.84;;;9.87;62.93
21821;BME280;11073;48.586;12.066;2023-03-19T07:40:31;96364.38;;;9.95;62.81
21821;BME280;11073;48.586;12.066;2023-03-19T07:43:20;96382.00;;;9.98;62.57
21821;BME280;11073;48.586;12.066;2023-03-19T07:46:09;96389.31;;;9.97;62.85
21821;BME280;11073;48.586;12.066;2023-03-19T07:48:59;96388.59;;;9.90;62.89
21821;BME280;11073;48.586;12.066;2023-03-19T07:51:50;96393.88;;;9.85;63.08
21821;BME280;11073;48.586;12.066;2023-03-19T07:54:39;96387.91;;;9.94;62.80
21821;BME280;11073;48.586;12.066;2023-03-19T07:57:28;96397.06;;;10.05;62.65
21821;BME280;11073;48.586;12.066;2023-03-19T08:00:17;96399.31;;;10.08;62.73
21821;BME280;11073;48.586;12.066;2023-03-19T08:03:07;96395.19;;;10.17;62.45
21821;BME280;11073;48.586;12.066;2023-03-19T08:05:56;96403.19;;;10.36;62.20
21821;BME280;11073;48.586;12.066;2023-03-19T08:08:46;96412.47;;;10.52;62.31
21821;BME280;11073;48.586;12.066;2023-03-19T08:11:36;96411.34;;;10.64;62.22
21821;BME280;11073;48.586;12.066;2023-03-19T08:14:24;96412.97;;;10.77;61.89
21821;BME280;11073;48.586;12.066;2023-03-19T08:17:13;96416.34;;;10.84;61.62
21821;BME280;11073;48.586;12.066;2023-03-19T08:20:05;96425.72;;;11.05;61.69
21821;BME280;11073;48.586;12.066;2023-03-19T08:22:55;96421.06;;;11.17;61.95
21821;BME280;11073;48.586;12.066;2023-03-19T08:25:45;96424.19;;;11.26;61.77
21821;BME280;11073;48.586;12.066;2023-03-19T08:28:34;96425.13;;;11.31;61.46
21821;BME280;11073;48.586;12.066;2023-03-19T08:31:23;96429.91;;;11.41;61.22
21821;BME280;11073;48.586;12.066;2023-03-19T08:34:12;96427.84;;;11.48;61.14
21821;BME280;11073;48.586;12.066;2023-03-19T08:37:01;96427.19;;;11.58;61.14
21821;BME280;11073;48.586;12.066;2023-03-19T08:39:51;96419.25;;;11.68;61.29
21821;BME280;11073;48.586;12.066;2023-03-19T08:42:42;96420.66;;;11.87;60.69
21821;BME280;11073;48.586;12.066;2023-03-19T08:45:32;96418.38;;;11.96;60.60
21821;BME280;11073;48.586;12.066;2023-03-19T08:48:21;96429.94;;;12.08;60.35
21821;BME280;11073;48.586;12.066;2023-03-19T08:51:11;96431.25;;;12.23;60.20
21821;BME280;11073;48.586;12.066;2023-03-19T08:54:00;96427.22;;;12.25;59.97
21821;BME280;11073;48.586;12.066;2023-03-19T08:56:48;96427.06;;;12.32;59.74
21821;BME280;11073;48.586;12.066;2023-03-19T08:59:39;96427.19;;;12.42;59.29
21821;BME280;11073;48.586;12.066;2023-03-19T09:02:27;96423.56;;;12.53;59.31
21821;BME280;11073;48.586;12.066;2023-03-19T09:05:16;96423.59;;;12.58;59.19
21821;BME280;11073;48.586;12.066;2023-03-19T09:08:09;96432.25;;;12.55;58.74
21821;BME280;11073;48.586;12.066;2023-03-19T09:10:59;96427.13;;;12.59;58.77
21821;BME280;11073;48.586;12.066;2023-03-19T09:13:48;96432.38;;;12.65;58.79
21821;BME280;11073;48.586;12.066;2023-03-19T09:16:39;96439.00;;;12.75;58.57
21821;BME280;11073;48.586;12.066;2023-03-19T09:19:28;96445.69;;;12.84;58.48
21821;BME280;11073;48.586;12.066;2023-03-19T09:22:17;96453.44;;;12.97;58.53
21821;BME280;11073;48.586;12.066;2023-03-19T09:25:07;96445.72;;;13.11;58.06
21821;BME280;11073;48.586;12.066;2023-03-19T09:27:55;96451.41;;;13.31;58.22
21821;BME280;11073;48.586;12.066;2023-03-19T09:30:45;96451.28;;;13.43;57.80
21821;BME280;11073;48.586;12.066;2023-03-19T09:33:36;96449.66;;;13.47;57.55
21821;BME280;11073;48.586;12.066;2023-03-19T09:36:25;96448.09;;;13.51;57.48
21821;BME280;11073;48.586;12.066;2023-03-19T09:39:14;96460.13;;;13.60;57.12
21821;BME280;11073;48.586;12.066;2023-03-19T09:42:13;96459.59;;;13.58;57.44
21821;BME280;11073;48.586;12.066;2023-03-19T09:45:06;96463.94;;;13.59;57.17
21821;BME280;11073;48.586;12.066;2023-03-19T09:48:03;96458.00;;;13.62;57.38
21821;BME280;11073;48.586;12.066;2023-03-19T09:50:55;96456.44;;;13.71;57.18
21821;BME280;11073;48.586;12.066;2023-03-19T09:53:48;96459.84;;;13.84;57.22
21821;BME280;11073;48.586;12.066;2023-03-19T09:56:42;96460.25;;;14.02;57.21
21821;BME280;11073;48.586;12.066;2023-03-19T09:59:31;96478.94;;;14.26;56.74
21821;BME280;11073;48.586;12.066;2023-03-19T10:02:37;96471.63;;;14.31;56.42
21821;BME280;11073;48.586;12.066;2023-03-19T10:05:36;96472.53;;;14.42;56.29
21821;BME280;11073;48.586;12.066;2023-03-19T10:08:40;96467.19;;;14.52;55.98
21821;BME280;11073;48.586;12.066;2023-03-19T10:11:44;96474.31;;;14.58;55.46
21821;BME280;11073;48.586;12.066;2023-03-19T10:15:00;96475.44;;;14.68;55.62
21821;BME280;11073;48.586;12.066;2023-03-19T10:17:56;96468.50;;;14.97;55.42
21821;BME280;11073;48.586;12.066;2023-03-19T10:20:51;96468.53;;;15.02;54.86
21821;BME280;11073;48.586;12.066;2023-03-19T10:23:45;96464.16;;;14.96;54.71
21821;BME280;11073;48.586;12.066;2023-03-19T10:26:36;96470.97;;;14.99;54.69
21821;BME280;11073;48.586;12.066;2023-03-19T10:29:26;96484.56;;;14.88;54.66
21821;BME280;11073;48.586;12.066;2023-03-19T10:32:17;96475.94;;;14.59;54.38
21821;BME280;11073;48.586;12.066;2023-03-19T10:35:15;96420.34;;;14.13;54.44
21821;BME280;11073;48.586;12.066;2023-03-19T10:38:16;96475.63;;;14.51;54.89
21821;BME280;11073;48.586;12.066;2023-03-19T10:41:21;96468.78;;;14.48;55.15
21821;BME280;11073;48.586;12.066;2023-03-19T10:44:20;96478.31;;;14.46;55.14
21821;BME280;11073;48.586;12.066;2023-03-19T10:47:13;96471.72;;;14.42;54.98
21821;BME280;11073;48.586;12.066;2023-03-19T10:50:04;96470.69;;;14.48;55.37
21821;BME280;11073;48.586;12.066;2023-03-19T10:53:03;96474.50;;;14.47;55.23
21821;BME280;11073;48.586;12.066;2023-03-19T10:55:55;96467.66;;;14.44;55.60
21821;BME280;11073;48.586;12.066;2023-03-19T10:58:56;96469.41;;;14.60;55.40
21821;BME280;11073;48.586;12.066;2023-03-19T11:01:46;96468.97;;;14.79;55.40
21821;BME280;11073;48.586;12.066;2023-03-19T11:04:35;96479.41;;;14.97;54.99
21821;BME280;11073;48.586;12.066;2023-03-19T11:07:26;96469.41;;;15.08;55.15
21821;BME280;11073;48.586;12.066;2023-03-19T11:10:16;96467.00;;;15.22;54.83
21821;BME280;11073;48.586;12.066;2023-03-19T11:13:21;96477.63;;;15.23;54.83
21821;BME280;11073;48.586;12.066;2023-03-19T11:16:12;96476.53;;;15.24;54.80
21821;BME280;11073;48.586;12.066;2023-03-19T11:19:01;96467.88;;;15.37;54.63
21821;BME280;11073;48.586;12.066;2023-03-19T11:22:08;96472.25;;;15.43;54.37
21821;BME280;11073;48.586;12.066;2023-03-19T11:24:59;96468.16;;;15.56;54.23
21821;BME280;11073;48.586;12.066;2023-03-19T11:27:57;96460.06;;;16.07;53.97
21821;BME280;11073;48.586;12.066;2023-03-19T11:30:54;96459.78;;;16.54;53.96
21821;BME280;11073;48.586;12.066;2023-03-19T11:33:59;96467.94;;;16.85;52.68
21821;BME280;11073;48.586;12.066;2023-03-19T11:36:59;96464.31;;;17.05;52.44
21821;BME280;11073;48.586;12.066;2023-03-19T11:40:00;96461.00;;;17.13;52.03
21821;BME280;11073;48.586;12.066;2023-03-19T11:43:02;96446.16;;;17.29;51.87
21821;BME280;11073;48.586;12.066;2023-03-19T11:45:59;96458.31;;;17.57;51.22
21821;BME280;11073;48.586;12.066;2023-03-19T11:49:19;96444.28;;;17.74;50.92
21821;BME280;11073;48.586;12.066;2023-03-19T11:52:15;96454.00;;;17.96;50.61
21821;BME280;11073;48.586;12.066;2023-03-19T11:55:17;96436.31;;;18.17;49.89
21821;BME280;11073;48.586;12.066;2023-03-19T12:01:40;96450.41;;;18.00;48.83
21821;BME280;11073;48.586;12.066;2023-03-19T12:08:03;96433.38;;;17.69;48.76
21821;BME280;11073;48.586;12.066;2023-03-19T12:11:02;96441.06;;;17.62;48.92
21821;BME280;11073;48.586;12.066;2023-03-19T12:14:08;96446.22;;;17.19;48.74
21821;BME280;11073;48.586;12.066;2023-03-19T12:17:20;96444.34;;;17.09;48.86
21821;BME280;11073;48.586;12.066;2023-03-19T12:20:20;96443.56;;;16.99;49.23
21821;BME280;11073;48.586;12.066;2023-03-19T12:23:22;96432.97;;;16.77;49.64
21821;BME280;11073;48.586;12.066;2023-03-19T12:26:20;96445.78;;;16.87;49.69
21821;BME280;11073;48.586;12.066;2023-03-19T12:29:18;96446.06;;;16.95;49.61
21821;BME280;11073;48.586;12.066;2023-03-19T12:32:17;96437.72;;;17.26;49.67
21821;BME280;11073;48.586;12.066;2023-03-19T12:35:12;96434.59;;;17.48;49.45
21821;BME280;11073;48.586;12.066;2023-03-19T12:38:09;96429.44;;;17.85;48.98
21821;BME280;11073;48.586;12.066;2023-03-19T12:41:02;96444.03;;;17.76;48.19
21821;BME280;11073;48.586;12.066;2023-03-19T12:43:56;96433.97;;;17.61;48.17
21821;BME280;11073;48.586;12.066;2023-03-19T12:46:50;96426.19;;;17.34;48.13
21821;BME280;11073;48.586;12.066;2023-03-19T12:49:47;96432.84;;;17.18;48.25
21821;BME280;11073;48.586;12.066;2023-03-19T12:52:40;96420.56;;;17.05;48.34
21821;BME280;11073;48.586;12.066;2023-03-19T12:55:36;96421.63;;;17.09;48.82
21821;BME280;11073;48.586;12.066;2023-03-19T12:58:38;96416.88;;;17.35;48.59
21821;BME280;11073;48.586;12.066;2023-03-19T13:01:32;96409.16;;;17.47;48.66
21821;BME280;11073;48.586;12.066;2023-03-19T13:04:27;96404.75;;;17.90;48.38
21821;BME280;11073;48.586;12.066;2023-03-19T13:07:20;96402.06;;;17.85;48.20
21821;BME280;11073;48.586;12.066;2023-03-19T13:10:13;96401.47;;;17.88;47.99
21821;BME280;11073;48.586;12.066;2023-03-19T13:13:21;96399.19;;;18.01;47.90
21821;BME280;11073;48.586;12.066;2023-03-19T13:16:25;96399.53;;;17.94;47.71
21821;BME280;11073;48.586;12.066;2023-03-19T13:19:21;96391.44;;;17.79;47.26
21821;BME280;11073;48.586;12.066;2023-03-19T13:22:15;96394.78;;;17.71;47.44
21821;BME280;11073;48.586;12.066;2023-03-19T13:25:13;96402.16;;;17.75;47.36
21821;BME280;11073;48.586;12.066;2023-03-19T13:28:09;96408.97;;;17.78;47.06
21821;BME280;11073;48.586;12.066;2023-03-19T13:30:59;96393.63;;;17.82;46.91
21821;BME280;11073;48.586;12.066;2023-03-19T13:33:52;96388.06;;;17.87;46.50
21821;BME280;11073;48.586;12.066;2023-03-19T13:36:45;96390.13;;;18.05;46.53
21821;BME280;11073;48.586;12.066;2023-03-19T13:39:35;96392.06;;;18.34;45.83
21821;BME280;11073;48.586;12.066;2023-03-19T13:42:37;96383.25;;;18.66;45.75
21821;BME280;11073;48.586;12.066;2023-03-19T13:45:34;96381.66;;;19.08;45.36
21821;BME280;11073;48.586;12.066;2023-03-19T13:48:36;96385.97;;;19.14;44.67
21821;BME280;11073;48.586;12.066;2023-03-19T13:51:27;96389.47;;;18.95;44.45
21821;BME280;11073;48.586;12.066;2023-03-19T13:54:18;96383.81;;;18.87;44.47
21821;BME280;11073;48.586;12.066;2023-03-19T13:57:19;96383.16;;;18.76;44.35
21821;BME280;11073;48.586;12.066;2023-03-19T14:00:53;96388.75;;;18.61;44.31
21821;BME280;11073;48.586;12.066;2023-03-19T14:03:52;96377.19;;;18.40;44.34
21821;BME280;11073;48.586;12.066;2023-03-19T14:06:44;96369.25;;;18.09;44.61
21821;BME280;11073;48.586;12.066;2023-03-19T14:09:39;96376.56;;;17.90;44.90
21821;BME280;11073;48.586;12.066;2023-03-19T14:12:30;96375.00;;;17.79;45.28
21821;BME280;11073;48.586;12.066;2023-03-19T14:15:22;96370.78;;;17.52;45.16
21821;BME280;11073;48.586;12.066;2023-03-19T14:18:15;96374.13;;;17.44;45.61
21821;BME280;11073;48.586;12.066;2023-03-19T14:21:09;96358.09;;;17.27;45.75
21821;BME280;11073;48.586;12.066;2023-03-19T14:24:26;96375.34;;;17.23;45.87
21821;BME280;11073;48.586;12.066;2023-03-19T14:27:36;96373.25;;;17.04;46.12
21821;BME280;11073;48.586;12.066;2023-03-19T14:30:29;96374.44;;;16.88;46.29
21821;BME280;11073;48.586;12.066;2023-03-19T14:33:25;96372.31;;;16.75;46.42
21821;BME280;11073;48.586;12.066;2023-03-19T14:36:18;96372.28;;;16.65;46.78
21821;BME280;11073;48.586;12.066;2023-03-19T14:39:16;96369.88;;;16.53;46.99
21821;BME280;11073;48.586;12.066;2023-03-19T14:42:16;96377.31;;;16.37;47.76
21821;BME280;11073;48.586;12.066;2023-03-19T14:48:42;96355.75;;;16.31;48.67
21821;BME280;11073;48.586;12.066;2023-03-19T14:51:51;96360.34;;;16.45;49.37
21821;BME280;11073;48.586;12.066;2023-03-19T14:54:44;96361.69;;;16.53;49.79
21821;BME280;11073;48.586;12.066;2023-03-19T14:57:35;96356.50;;;16.51;49.91
21821;BME280;11073;48.586;12.066;2023-03-19T15:00:24;96359.25;;;16.51;50.16
21821;BME280;11073;48.586;12.066;2023-03-19T15:03:20;96354.84;;;16.50;50.20
21821;BME280;11073;48.586;12.066;2023-03-19T15:06:12;96352.63;;;16.58;50.46
21821;BME280;11073;48.586;12.066;2023-03-19T15:09:05;96348.53;;;16.75;50.57
21821;BME280;11073;48.586;12.066;2023-03-19T15:12:21;96352.91;;;17.26;50.16
21821;BME280;11073;48.586;12.066;2023-03-19T15:15:21;96346.84;;;17.29;49.71
21821;BME280;11073;48.586;12.066;2023-03-19T15:18:14;96349.28;;;17.35;49.29
21821;BME280;11073;48.586;12.066;2023-03-19T15:21:03;96354.44;;;17.42;48.76
21821;BME280;11073;48.586;12.066;2023-03-19T15:23:54;96356.72;;;17.69;48.84
21821;BME280;11073;48.586;12.066;2023-03-19T15:26:44;96354.56;;;18.00;48.54